Airfield :
LOGIN :

Register | Disclaimer

   EN    FR    IT 

 










Legend :    VFR   Marginal VFR   IFR   Intensive IFR   Very Intensive IFR
Visi :
Ceiling :
>= 8 km
>= 3000ft
5 to 8 km
1000 to 3000 ft
1500m to 5 km
500 to 1000 ft
800 to 1500m
200 to 500 ft
< 800m
< 200 ft
Symbols :   Thunderstorms  Fog  Heavy snow  Heavy precipitations  Wind > 20 kt
SIGMETs :     Misc.  Thunderstorms  Icing  Turbulence  Mountain Waves  Volcanic Ashes







- Airport Elevation : 33 ft
- IATA code : MHZ


EGUN - RAF Mildenhall

CURRENT METAR :
  • 191156Z AUTO 12009KT 9999 FEW100 17/17 A2961 RMK AO2 SLP030 60000 T01660166 10166 20137 57031 $

EXPIRED METARs :
  • 191056Z AUTO 11009KT 8000 BR CLR 16/16 A2965 RMK AO2 SLP044 T01580158 $
  • 191011Z AUTO 10007KT 6000 BR SCT005 16/16 A2967 RMK AO2 SLP050 $
  • 191001Z AUTO 12007KT 6000 BR BKN004 16/16 A2967 RMK AO2 SLP050 $
  • 190941Z AUTO 12009KT 5000 BR OVC003 15/15 A2968 RMK AO2 VIS 4000 RWY29 RAB0857E06 SLP054 $

TAF TAF EGUN
Valid from the 19 at 12:00 until the 20 at 18:00 UTC


191158Z 1912/2018 15012KT 9000 -SHRA BKN100 621008 QNH2960INS
BECMG 1914/1915 16015G25KT 9000 -SHRA BKN010 620809 621701 510004 QNH2956INS
BECMG 2004/2005 18015G25KT 9000 -SHRA BKN010 620809 621701 510004 QNH2949INS
BECMG 2016/2017 23012G18KT 9999 NSW BKN030 QNH2972INS TX18/1912Z TN11/2008Z
No reported NOTAMs for that airfield.



MET'MAP, your aeronautical weather chart ! - Copyright ORBIFLY December 2007 - Disclaimer

ORBIFLY MET'MAP TEAM :

Programming & Development : Alexandra Zaïnal
Concept & Development : Baudouin d'Aumeries
Co-Development & Prog : Marc-Olivier Méhu
Technical & hardware support : Manuel Goepfert

Contact : metmap@orbifly.com




SOURCES & CREDITS :

   NOAA